sensor_id;sensor_type;location;lat;lon;timestamp;pressure;altitude;pressure_sealevel;temperature;humidity
38630;BME280;24384;51.988;4.644;2023-01-27T00:01:42;102708.81;;;5.71;78.22
38630;BME280;24384;51.988;4.644;2023-01-27T00:04:07;102714.91;;;5.71;77.61
38630;BME280;24384;51.988;4.644;2023-01-27T00:06:32;102716.72;;;5.76;77.47
38630;BME280;24384;51.988;4.644;2023-01-27T00:08:57;102709.66;;;5.71;77.72
38630;BME280;24384;51.988;4.644;2023-01-27T00:11:23;102712.38;;;5.76;77.25
38630;BME280;24384;51.988;4.644;2023-01-27T00:14:06;102706.97;;;5.67;77.48
38630;BME280;24384;51.988;4.644;2023-01-27T00:16:32;102706.22;;;5.72;77.35
38630;BME280;24384;51.988;4.644;2023-01-27T00:18:57;102712.38;;;5.78;76.91
38630;BME280;24384;51.988;4.644;2023-01-27T00:21:22;102714.09;;;5.74;77.09
38630;BME280;24384;51.988;4.644;2023-01-27T00:24:10;102718.47;;;5.75;77.46
38630;BME280;24384;51.988;4.644;2023-01-27T00:26:54;102714.16;;;5.79;77.20
38630;BME280;24384;51.988;4.644;2023-01-27T00:29:19;102701.09;;;5.80;77.72
38630;BME280;24384;51.988;4.644;2023-01-27T00:31:45;102708.91;;;5.77;77.06
38630;BME280;24384;51.988;4.644;2023-01-27T00:34:29;102704.47;;;5.74;76.92
38630;BME280;24384;51.988;4.644;2023-01-27T00:36:54;102703.66;;;5.76;77.39
38630;BME280;24384;51.988;4.644;2023-01-27T00:39:19;102696.72;;;5.79;76.93
38630;BME280;24384;51.988;4.644;2023-01-27T00:41:44;102700.03;;;5.67;77.54
38630;BME280;24384;51.988;4.644;2023-01-27T00:44:10;102707.94;;;5.70;77.39
38630;BME280;24384;51.988;4.644;2023-01-27T00:46:37;102707.03;;;5.70;77.64
38630;BME280;24384;51.988;4.644;2023-01-27T00:49:02;102705.38;;;5.73;77.38
38630;BME280;24384;51.988;4.644;2023-01-27T00:51:28;102701.78;;;5.70;77.89
38630;BME280;24384;51.988;4.644;2023-01-27T00:53:53;102700.72;;;5.57;77.98
38630;BME280;24384;51.988;4.644;2023-01-27T00:56:18;102705.88;;;5.54;78.71
38630;BME280;24384;51.988;4.644;2023-01-27T00:58:43;102705.84;;;5.51;78.41
38630;BME280;24384;51.988;4.644;2023-01-27T01:01:12;102699.00;;;5.59;78.33
38630;BME280;24384;51.988;4.644;2023-01-27T01:03:38;102707.78;;;5.63;78.04
38630;BME280;24384;51.988;4.644;2023-01-27T01:06:06;102720.00;;;5.64;77.79
38630;BME280;24384;51.988;4.644;2023-01-27T01:08:34;102719.94;;;5.59;77.49
38630;BME280;24384;51.988;4.644;2023-01-27T01:10:59;102719.94;;;5.59;77.32
38630;BME280;24384;51.988;4.644;2023-01-27T01:13:26;102712.81;;;5.50;77.59
38630;BME280;24384;51.988;4.644;2023-01-27T01:15:55;102716.31;;;5.51;77.57
38630;BME280;24384;51.988;4.644;2023-01-27T01:18:21;102713.53;;;5.42;77.64
38630;BME280;24384;51.988;4.644;2023-01-27T01:20:47;102721.38;;;5.42;77.75
38630;BME280;24384;51.988;4.644;2023-01-27T01:23:13;102723.13;;;5.41;77.82
38630;BME280;24384;51.988;4.644;2023-01-27T01:25:39;102725.78;;;5.44;77.51
38630;BME280;24384;51.988;4.644;2023-01-27T01:28:06;102719.50;;;5.36;77.94
38630;BME280;24384;51.988;4.644;2023-01-27T01:30:36;102719.59;;;5.41;76.96
38630;BME280;24384;51.988;4.644;2023-01-27T01:33:02;102717.88;;;5.41;77.79
38630;BME280;24384;51.988;4.644;2023-01-27T01:35:27;102724.72;;;5.34;78.26
38630;BME280;24384;51.988;4.644;2023-01-27T01:37:53;102725.41;;;5.24;76.92
38630;BME280;24384;51.988;4.644;2023-01-27T01:40:20;102722.66;;;5.16;77.30
38630;BME280;24384;51.988;4.644;2023-01-27T01:50:56;102739.41;;;5.26;77.34
38630;BME280;24384;51.988;4.644;2023-01-27T01:53:27;102737.63;;;5.24;79.14
38630;BME280;24384;51.988;4.644;2023-01-27T01:55:57;102743.53;;;5.15;78.73
38630;BME280;24384;51.988;4.644;2023-01-27T01:58:25;102746.00;;;5.07;77.88
38630;BME280;24384;51.988;4.644;2023-01-27T02:00:52;102757.19;;;5.00;77.36
38630;BME280;24384;51.988;4.644;2023-01-27T02:03:17;102747.56;;;4.97;77.84
38630;BME280;24384;51.988;4.644;2023-01-27T02:05:43;102738.88;;;5.00;78.25
38630;BME280;24384;51.988;4.644;2023-01-27T02:08:16;102737.03;;;4.94;78.07
38630;BME280;24384;51.988;4.644;2023-01-27T02:10:44;102739.63;;;4.93;76.78
38630;BME280;24384;51.988;4.644;2023-01-27T02:13:09;102743.88;;;4.89;77.18
38630;BME280;24384;51.988;4.644;2023-01-27T02:15:35;102741.19;;;4.86;77.65
38630;BME280;24384;51.988;4.644;2023-01-27T02:18:01;102743.63;;;4.77;77.87
38630;BME280;24384;51.988;4.644;2023-01-27T02:20:33;102739.31;;;4.77;77.44
38630;BME280;24384;51.988;4.644;2023-01-27T02:23:10;102744.56;;;4.79;78.72
38630;BME280;24384;51.988;4.644;2023-01-27T02:25:46;102753.38;;;4.84;77.92
38630;BME280;24384;51.988;4.644;2023-01-27T02:28:11;102752.44;;;4.80;77.90
38630;BME280;24384;51.988;4.644;2023-01-27T02:30:37;102741.97;;;4.80;78.01
38630;BME280;24384;51.988;4.644;2023-01-27T02:33:09;102752.63;;;4.90;77.65
38630;BME280;24384;51.988;4.644;2023-01-27T02:35:38;102753.31;;;4.81;77.93
38630;BME280;24384;51.988;4.644;2023-01-27T02:38:06;102745.41;;;4.78;78.09
38630;BME280;24384;51.988;4.644;2023-01-27T02:40:33;102747.94;;;4.75;78.58
38630;BME280;24384;51.988;4.644;2023-01-27T02:43:03;102751.59;;;4.83;78.50
38630;BME280;24384;51.988;4.644;2023-01-27T02:45:29;102748.94;;;4.81;78.47
38630;BME280;24384;51.988;4.644;2023-01-27T02:47:54;102749.94;;;4.87;78.80
38630;BME280;24384;51.988;4.644;2023-01-27T02:50:20;102756.59;;;4.72;79.19
38630;BME280;24384;51.988;4.644;2023-01-27T02:52:45;102758.41;;;4.75;78.55
38630;BME280;24384;51.988;4.644;2023-01-27T02:55:10;102754.75;;;4.66;78.67
38630;BME280;24384;51.988;4.644;2023-01-27T02:57:35;102760.94;;;4.72;78.58
38630;BME280;24384;51.988;4.644;2023-01-27T03:00:01;102759.13;;;4.69;78.12
38630;BME280;24384;51.988;4.644;2023-01-27T03:02:26;102748.50;;;4.61;78.17
38630;BME280;24384;51.988;4.644;2023-01-27T03:04:55;102756.28;;;4.58;78.10
38630;BME280;24384;51.988;4.644;2023-01-27T03:07:20;102762.44;;;4.60;78.58
38630;BME280;24384;51.988;4.644;2023-01-27T03:09:45;102754.44;;;4.53;78.80
38630;BME280;24384;51.988;4.644;2023-01-27T03:12:10;102749.22;;;4.53;78.99
38630;BME280;24384;51.988;4.644;2023-01-27T03:14:49;102751.06;;;4.58;78.41
38630;BME280;24384;51.988;4.644;2023-01-27T03:17:35;102756.19;;;4.54;78.33
38630;BME280;24384;51.988;4.644;2023-01-27T03:20:19;102755.44;;;4.59;77.77
38630;BME280;24384;51.988;4.644;2023-01-27T03:22:45;102766.72;;;4.57;78.10
38630;BME280;24384;51.988;4.644;2023-01-27T03:25:10;102765.75;;;4.53;78.57
38630;BME280;24384;51.988;4.644;2023-01-27T03:27:36;102766.66;;;4.55;77.96
38630;BME280;24384;51.988;4.644;2023-01-27T03:30:02;102772.84;;;4.57;77.79
38630;BME280;24384;51.988;4.644;2023-01-27T03:32:29;102781.63;;;4.61;77.93
38630;BME280;24384;51.988;4.644;2023-01-27T03:34:55;102778.97;;;4.59;77.79
38630;BME280;24384;51.988;4.644;2023-01-27T03:37:25;102776.28;;;4.56;77.68
38630;BME280;24384;51.988;4.644;2023-01-27T03:40:10;102778.63;;;4.44;78.34
38630;BME280;24384;51.988;4.644;2023-01-27T03:42:54;102780.53;;;4.51;78.37
38630;BME280;24384;51.988;4.644;2023-01-27T03:45:39;102787.25;;;4.41;78.57
38630;BME280;24384;51.988;4.644;2023-01-27T03:48:26;102780.50;;;4.50;78.43
38630;BME280;24384;51.988;4.644;2023-01-27T03:50:56;102784.72;;;4.44;77.78
38630;BME280;24384;51.988;4.644;2023-01-27T03:53:21;102784.75;;;4.46;77.81
38630;BME280;24384;51.988;4.644;2023-01-27T03:55:47;102786.34;;;4.39;78.31
38630;BME280;24384;51.988;4.644;2023-01-27T03:58:29;102791.72;;;4.45;77.66
38630;BME280;24384;51.988;4.644;2023-01-27T04:01:01;102799.78;;;4.55;77.62
38630;BME280;24384;51.988;4.644;2023-01-27T04:03:32;102805.59;;;4.43;78.10
38630;BME280;24384;51.988;4.644;2023-01-27T04:06:19;102809.97;;;4.44;77.69
38630;BME280;24384;51.988;4.644;2023-01-27T04:09:06;102805.47;;;4.38;78.20
38630;BME280;24384;51.988;4.644;2023-01-27T04:11:32;102805.28;;;4.30;78.40
38630;BME280;24384;51.988;4.644;2023-01-27T04:14:16;102813.88;;;4.25;78.29
38630;BME280;24384;51.988;4.644;2023-01-27T04:16:42;102819.13;;;4.26;79.19
38630;BME280;24384;51.988;4.644;2023-01-27T04:19:08;102821.00;;;4.32;80.91
38630;BME280;24384;51.988;4.644;2023-01-27T04:21:34;102831.34;;;4.27;79.48
38630;BME280;24384;51.988;4.644;2023-01-27T04:24:00;102827.84;;;4.27;80.13
38630;BME280;24384;51.988;4.644;2023-01-27T04:26:26;102842.56;;;4.23;78.70
38630;BME280;24384;51.988;4.644;2023-01-27T04:28:59;102844.47;;;4.30;78.22
38630;BME280;24384;51.988;4.644;2023-01-27T04:31:25;102840.03;;;4.26;80.04
38630;BME280;24384;51.988;4.644;2023-01-27T04:33:50;102853.06;;;4.25;79.39
38630;BME280;24384;51.988;4.644;2023-01-27T04:36:15;102844.41;;;4.27;80.33
38630;BME280;24384;51.988;4.644;2023-01-27T04:38:41;102842.81;;;4.33;80.26
38630;BME280;24384;51.988;4.644;2023-01-27T04:41:06;102851.56;;;4.35;81.06
38630;BME280;24384;51.988;4.644;2023-01-27T04:43:32;102837.66;;;4.36;79.58
38630;BME280;24384;51.988;4.644;2023-01-27T04:45:57;102849.81;;;4.35;78.96
38630;BME280;24384;51.988;4.644;2023-01-27T04:48:22;102839.53;;;4.43;82.19
38630;BME280;24384;51.988;4.644;2023-01-27T04:50:47;102850.59;;;4.31;80.27
38630;BME280;24384;51.988;4.644;2023-01-27T04:53:13;102841.81;;;4.29;82.24
38630;BME280;24384;51.988;4.644;2023-01-27T04:55:45;102848.03;;;4.33;84.03
38630;BME280;24384;51.988;4.644;2023-01-27T04:58:12;102856.78;;;4.35;83.01
38630;BME280;24384;51.988;4.644;2023-01-27T05:00:37;102858.28;;;4.25;81.17
38630;BME280;24384;51.988;4.644;2023-01-27T05:03:03;102854.75;;;4.24;79.74
38630;BME280;24384;51.988;4.644;2023-01-27T05:05:30;102855.06;;;4.37;80.54
38630;BME280;24384;51.988;4.644;2023-01-27T05:07:55;102857.66;;;4.35;81.22
38630;BME280;24384;51.988;4.644;2023-01-27T05:10:20;102848.09;;;4.36;77.44
38630;BME280;24384;51.988;4.644;2023-01-27T05:12:46;102848.84;;;4.32;79.06
38630;BME280;24384;51.988;4.644;2023-01-27T05:15:11;102859.94;;;4.23;78.83
38630;BME280;24384;51.988;4.644;2023-01-27T05:17:36;102856.53;;;4.25;77.55
38630;BME280;24384;51.988;4.644;2023-01-27T05:20:02;102848.78;;;4.28;80.61
38630;BME280;24384;51.988;4.644;2023-01-27T05:22:28;102854.84;;;4.27;79.63
38630;BME280;24384;51.988;4.644;2023-01-27T05:24:53;102862.78;;;4.32;78.67
38630;BME280;24384;51.988;4.644;2023-01-27T05:27:18;102864.41;;;4.27;78.00
38630;BME280;24384;51.988;4.644;2023-01-27T05:29:44;102860.06;;;4.27;76.34
38630;BME280;24384;51.988;4.644;2023-01-27T05:32:09;102864.25;;;4.21;76.45
38630;BME280;24384;51.988;4.644;2023-01-27T05:34:34;102865.22;;;4.24;77.19
38630;BME280;24384;51.988;4.644;2023-01-27T05:37:00;102866.06;;;4.23;76.68
38630;BME280;24384;51.988;4.644;2023-01-27T05:39:25;102872.94;;;4.20;76.38
38630;BME280;24384;51.988;4.644;2023-01-27T05:41:50;102873.00;;;4.23;76.21
38630;BME280;24384;51.988;4.644;2023-01-27T05:44:16;102878.22;;;4.23;76.56
38630;BME280;24384;51.988;4.644;2023-01-27T05:46:41;102878.31;;;4.26;75.54
38630;BME280;24384;51.988;4.644;2023-01-27T05:49:07;102877.25;;;4.18;75.87
38630;BME280;24384;51.988;4.644;2023-01-27T05:51:34;102878.19;;;4.21;76.87
38630;BME280;24384;51.988;4.644;2023-01-27T05:54:00;102872.97;;;4.21;76.86
38630;BME280;24384;51.988;4.644;2023-01-27T05:56:25;102880.81;;;4.21;76.49
38630;BME280;24384;51.988;4.644;2023-01-27T05:58:55;102880.91;;;4.26;79.05
38630;BME280;24384;51.988;4.644;2023-01-27T06:01:23;102877.28;;;4.19;78.32
38630;BME280;24384;51.988;4.644;2023-01-27T06:03:49;102876.56;;;4.25;80.57
38630;BME280;24384;51.988;4.644;2023-01-27T06:06:17;102880.72;;;4.18;78.00
38630;BME280;24384;51.988;4.644;2023-01-27T06:08:43;102887.72;;;4.19;80.25
38630;BME280;24384;51.988;4.644;2023-01-27T06:11:10;102883.66;;;4.30;78.17
38630;BME280;24384;51.988;4.644;2023-01-27T06:13:35;102888.81;;;4.27;78.52
38630;BME280;24384;51.988;4.644;2023-01-27T06:16:06;102881.00;;;4.29;80.65
38630;BME280;24384;51.988;4.644;2023-01-27T06:18:32;102874.09;;;4.31;82.26
38630;BME280;24384;51.988;4.644;2023-01-27T06:20:59;102886.22;;;4.29;81.42
38630;BME280;24384;51.988;4.644;2023-01-27T06:23:25;102887.09;;;4.28;79.81
38630;BME280;24384;51.988;4.644;2023-01-27T06:25:51;102895.81;;;4.28;78.75
38630;BME280;24384;51.988;4.644;2023-01-27T06:28:17;102894.97;;;4.29;79.95
38630;BME280;24384;51.988;4.644;2023-01-27T06:30:42;102888.75;;;4.26;76.80
38630;BME280;24384;51.988;4.644;2023-01-27T06:33:08;102885.06;;;4.18;76.43
38630;BME280;24384;51.988;4.644;2023-01-27T06:35:35;102893.78;;;4.18;77.63
38630;BME280;24384;51.988;4.644;2023-01-27T06:38:02;102898.09;;;4.16;78.54
38630;BME280;24384;51.988;4.644;2023-01-27T06:40:29;102902.56;;;4.20;77.09
38630;BME280;24384;51.988;4.644;2023-01-27T06:42:54;102897.38;;;4.22;75.63
38630;BME280;24384;51.988;4.644;2023-01-27T06:45:20;102909.41;;;4.17;75.44
38630;BME280;24384;51.988;4.644;2023-01-27T06:47:56;102907.53;;;4.11;74.68
38630;BME280;24384;51.988;4.644;2023-01-27T06:50:22;102910.81;;;4.04;74.54
38630;BME280;24384;51.988;4.644;2023-01-27T06:52:48;102913.50;;;4.07;75.09
38630;BME280;24384;51.988;4.644;2023-01-27T06:55:14;102921.06;;;3.96;74.10
38630;BME280;24384;51.988;4.644;2023-01-27T06:57:39;102914.25;;;4.03;74.32
38630;BME280;24384;51.988;4.644;2023-01-27T07:00:05;102910.00;;;4.05;80.26
38630;BME280;24384;51.988;4.644;2023-01-27T07:02:31;102916.88;;;4.03;79.41
38630;BME280;24384;51.988;4.644;2023-01-27T07:04:56;102918.81;;;4.10;79.79
38630;BME280;24384;51.988;4.644;2023-01-27T07:07:21;102922.34;;;4.12;78.77
38630;BME280;24384;51.988;4.644;2023-01-27T07:09:47;102912.59;;;4.05;75.93
38630;BME280;24384;51.988;4.644;2023-01-27T07:12:12;102915.25;;;4.06;79.42
38630;BME280;24384;51.988;4.644;2023-01-27T07:14:37;102924.91;;;4.10;78.86
38630;BME280;24384;51.988;4.644;2023-01-27T07:17:03;102927.63;;;4.13;78.52
38630;BME280;24384;51.988;4.644;2023-01-27T07:19:28;102926.66;;;4.10;80.17
38630;BME280;24384;51.988;4.644;2023-01-27T07:21:53;102925.81;;;4.11;77.93
38630;BME280;24384;51.988;4.644;2023-01-27T07:24:19;102925.81;;;4.11;77.48
38630;BME280;24384;51.988;4.644;2023-01-27T07:26:44;102937.94;;;4.09;75.23
38630;BME280;24384;51.988;4.644;2023-01-27T07:29:12;102926.41;;;4.01;75.74
38630;BME280;24384;51.988;4.644;2023-01-27T07:31:37;102926.22;;;3.94;75.39
38630;BME280;24384;51.988;4.644;2023-01-27T07:34:02;102923.63;;;3.94;75.44
38630;BME280;24384;51.988;4.644;2023-01-27T07:36:27;102930.53;;;3.92;73.97
38630;BME280;24384;51.988;4.644;2023-01-27T07:38:53;102935.53;;;3.85;73.44
38630;BME280;24384;51.988;4.644;2023-01-27T07:41:20;102949.22;;;3.76;73.51
38630;BME280;24384;51.988;4.644;2023-01-27T07:43:47;102948.84;;;3.64;72.73
38630;BME280;24384;51.988;4.644;2023-01-27T07:46:13;102964.59;;;3.67;72.75
38630;BME280;24384;51.988;4.644;2023-01-27T07:48:38;102960.28;;;3.69;71.75
38630;BME280;24384;51.988;4.644;2023-01-27T07:51:04;102961.06;;;3.65;72.29
38630;BME280;24384;51.988;4.644;2023-01-27T07:53:29;102951.56;;;3.67;76.10
38630;BME280;24384;51.988;4.644;2023-01-27T07:55:54;102968.00;;;3.64;72.73
38630;BME280;24384;51.988;4.644;2023-01-27T07:58:19;102968.41;;;3.78;77.12
38630;BME280;24384;51.988;4.644;2023-01-27T08:00:45;102966.81;;;3.83;75.83
38630;BME280;24384;51.988;4.644;2023-01-27T08:03:22;102971.41;;;3.92;78.62
38630;BME280;24384;51.988;4.644;2023-01-27T08:05:47;102972.34;;;3.94;79.30
38630;BME280;24384;51.988;4.644;2023-01-27T08:08:13;102976.81;;;3.98;78.25
38630;BME280;24384;51.988;4.644;2023-01-27T08:10:38;102977.84;;;4.03;78.10
38630;BME280;24384;51.988;4.644;2023-01-27T08:13:04;102983.09;;;4.05;77.42
38630;BME280;24384;51.988;4.644;2023-01-27T08:15:29;102993.28;;;3.96;72.39
38630;BME280;24384;51.988;4.644;2023-01-27T08:17:56;102990.78;;;3.99;72.17
38630;BME280;24384;51.988;4.644;2023-01-27T08:20:22;102983.91;;;4.02;71.69
38630;BME280;24384;51.988;4.644;2023-01-27T08:22:48;102985.69;;;4.03;71.53
38630;BME280;24384;51.988;4.644;2023-01-27T08:25:13;102990.06;;;4.06;72.34
38630;BME280;24384;51.988;4.644;2023-01-27T08:27:38;102991.84;;;4.07;71.78
38630;BME280;24384;51.988;4.644;2023-01-27T08:30:04;102991.06;;;4.09;71.38
38630;BME280;24384;51.988;4.644;2023-01-27T08:32:29;102999.38;;;4.26;69.53
38630;BME280;24384;51.988;4.644;2023-01-27T08:34:55;102997.16;;;4.10;70.86
38630;BME280;24384;51.988;4.644;2023-01-27T08:37:20;102989.72;;;4.24;70.23
38630;BME280;24384;51.988;4.644;2023-01-27T08:39:45;102993.97;;;4.20;69.72
38630;BME280;24384;51.988;4.644;2023-01-27T08:42:11;102996.94;;;4.02;70.41
38630;BME280;24384;51.988;4.644;2023-01-27T08:44:37;102996.25;;;4.08;70.50
38630;BME280;24384;51.988;4.644;2023-01-27T08:47:02;102995.44;;;4.10;70.16
38630;BME280;24384;51.988;4.644;2023-01-27T08:49:27;102995.50;;;4.13;70.11
38630;BME280;24384;51.988;4.644;2023-01-27T08:51:52;102994.84;;;4.21;70.06
38630;BME280;24384;51.988;4.644;2023-01-27T08:54:18;103006.13;;;4.20;70.42
38630;BME280;24384;51.988;4.644;2023-01-27T08:56:43;102996.03;;;4.32;69.83
38630;BME280;24384;51.988;4.644;2023-01-27T08:59:08;103004.69;;;4.29;69.13
38630;BME280;24384;51.988;4.644;2023-01-27T09:01:33;103007.56;;;4.39;69.67
38630;BME280;24384;51.988;4.644;2023-01-27T09:03:59;103014.03;;;4.53;68.14
38630;BME280;24384;51.988;4.644;2023-01-27T09:06:24;103002.78;;;4.56;69.13
38630;BME280;24384;51.988;4.644;2023-01-27T09:08:49;103009.91;;;4.63;69.31
38630;BME280;24384;51.988;4.644;2023-01-27T09:11:33;103000.81;;;4.80;68.49
38630;BME280;24384;51.988;4.644;2023-01-27T09:13:58;102993.28;;;5.31;67.50
38630;BME280;24384;51.988;4.644;2023-01-27T09:16:24;102997.75;;;6.16;66.26
38630;BME280;24384;51.988;4.644;2023-01-27T09:18:49;102986.47;;;7.21;63.11
38630;BME280;24384;51.988;4.644;2023-01-27T09:21:14;102990.47;;;8.25;58.57
38630;BME280;24384;51.988;4.644;2023-01-27T09:23:40;102990.38;;;9.04;55.63
38630;BME280;24384;51.988;4.644;2023-01-27T09:26:05;102988.19;;;9.76;52.26
38630;BME280;24384;51.988;4.644;2023-01-27T09:28:30;102991.06;;;10.83;48.44
38630;BME280;24384;51.988;4.644;2023-01-27T09:30:56;102993.69;;;11.34;48.38
38630;BME280;24384;51.988;4.644;2023-01-27T09:33:22;102990.13;;;11.53;47.03
38630;BME280;24384;51.988;4.644;2023-01-27T09:35:52;102988.25;;;11.81;46.64
38630;BME280;24384;51.988;4.644;2023-01-27T09:38:19;102994.22;;;12.33;44.62
38630;BME280;24384;51.988;4.644;2023-01-27T09:43:42;102983.47;;;12.58;45.17
38630;BME280;24384;51.988;4.644;2023-01-27T09:51:49;102972.41;;;13.92;40.91
38630;BME280;24384;51.988;4.644;2023-01-27T10:11:47;102964.75;;;16.97;33.86
38630;BME280;24384;51.988;4.644;2023-01-27T10:14:38;102966.97;;;17.78;32.67
38630;BME280;24384;51.988;4.644;2023-01-27T10:17:16;102969.00;;;17.68;32.29
38630;BME280;24384;51.988;4.644;2023-01-27T10:20:17;102973.72;;;17.90;31.46
38630;BME280;24384;51.988;4.644;2023-01-27T10:28:43;102960.22;;;19.06;30.61
38630;BME280;24384;51.988;4.644;2023-01-27T10:31:25;102968.13;;;19.09;29.86
38630;BME280;24384;51.988;4.644;2023-01-27T10:33:55;102971.00;;;19.28;29.60
38630;BME280;24384;51.988;4.644;2023-01-27T10:36:27;102969.72;;;18.61;30.45
38630;BME280;24384;51.988;4.644;2023-01-27T10:42:09;102968.09;;;20.94;27.60
38630;BME280;24384;51.988;4.644;2023-01-27T10:51:03;102962.84;;;20.26;27.78
38630;BME280;24384;51.988;4.644;2023-01-27T10:56:39;102958.63;;;20.20;27.63
38630;BME280;24384;51.988;4.644;2023-01-27T10:59:29;102960.41;;;20.20;28.41
38630;BME280;24384;51.988;4.644;2023-01-27T11:02:00;102957.72;;;20.64;27.19
38630;BME280;24384;51.988;4.644;2023-01-27T11:04:31;102967.25;;;19.34;30.97
38630;BME280;24384;51.988;4.644;2023-01-27T11:06:59;102968.25;;;17.95;35.46
38630;BME280;24384;51.988;4.644;2023-01-27T11:09:33;102973.75;;;16.19;34.49
38630;BME280;24384;51.988;4.644;2023-01-27T11:12:04;102959.84;;;14.67;37.37
38630;BME280;24384;51.988;4.644;2023-01-27T11:14:32;102977.25;;;13.58;40.32
38630;BME280;24384;51.988;4.644;2023-01-27T11:17:16;102978.28;;;12.42;45.38
38630;BME280;24384;51.988;4.644;2023-01-27T11:20:26;102976.91;;;11.55;44.64
38630;BME280;24384;51.988;4.644;2023-01-27T11:25:28;102973.50;;;10.66;48.07
38630;BME280;24384;51.988;4.644;2023-01-27T11:28:02;102977.81;;;10.32;49.73
38630;BME280;24384;51.988;4.644;2023-01-27T11:30:37;102983.00;;;10.01;51.17
38630;BME280;24384;51.988;4.644;2023-01-27T11:33:29;102982.72;;;9.39;50.94
38630;BME280;24384;51.988;4.644;2023-01-27T11:35:57;102968.63;;;9.36;52.89
38630;BME280;24384;51.988;4.644;2023-01-27T11:38:22;102980.00;;;9.27;52.18
38630;BME280;24384;51.988;4.644;2023-01-27T11:40:50;102972.84;;;9.09;54.75
38630;BME280;24384;51.988;4.644;2023-01-27T11:43:20;102982.28;;;8.82;55.61
38630;BME280;24384;51.988;4.644;2023-01-27T11:45:50;102970.78;;;8.71;55.96
38630;BME280;24384;51.988;4.644;2023-01-27T11:48:17;102965.50;;;8.68;54.96
38630;BME280;24384;51.988;4.644;2023-01-27T11:50:44;102971.25;;;8.30;56.59
38630;BME280;24384;51.988;4.644;2023-01-27T11:53:17;102962.50;;;8.34;56.79
38630;BME280;24384;51.988;4.644;2023-01-27T11:55:53;102971.00;;;8.08;57.44
38630;BME280;24384;51.988;4.644;2023-01-27T11:58:26;102971.91;;;8.10;60.54
38630;BME280;24384;51.988;4.644;2023-01-27T12:01:03;102970.16;;;8.11;57.24
38630;BME280;24384;51.988;4.644;2023-01-27T12:04:02;102963.00;;;7.97;57.63
38630;BME280;24384;51.988;4.644;2023-01-27T12:09:38;102957.50;;;7.77;58.08
38630;BME280;24384;51.988;4.644;2023-01-27T12:14:48;102954.72;;;7.63;58.82
38630;BME280;24384;51.988;4.644;2023-01-27T12:17:21;102948.25;;;7.41;59.97
38630;BME280;24384;51.988;4.644;2023-01-27T12:19:49;102955.84;;;7.20;61.28
38630;BME280;24384;51.988;4.644;2023-01-27T12:22:23;102949.81;;;7.25;62.08
38630;BME280;24384;51.988;4.644;2023-01-27T12:24:54;102955.94;;;7.27;61.42
38630;BME280;24384;51.988;4.644;2023-01-27T12:27:23;102948.03;;;7.26;61.59
38630;BME280;24384;51.988;4.644;2023-01-27T12:29:52;102965.56;;;7.27;62.70
38630;BME280;24384;51.988;4.644;2023-01-27T12:32:23;102959.56;;;7.34;63.70
38630;BME280;24384;51.988;4.644;2023-01-27T12:34:51;102955.13;;;7.30;62.90
38630;BME280;24384;51.988;4.644;2023-01-27T12:37:30;102950.69;;;7.27;65.22
38630;BME280;24384;51.988;4.644;2023-01-27T12:40:00;102957.03;;;7.40;67.83
38630;BME280;24384;51.988;4.644;2023-01-27T12:42:36;102950.00;;;7.39;66.46
38630;BME280;24384;51.988;4.644;2023-01-27T12:45:28;102943.53;;;7.14;64.40
38630;BME280;24384;51.988;4.644;2023-01-27T12:50:35;102947.19;;;7.27;68.79
38630;BME280;24384;51.988;4.644;2023-01-27T12:55:50;102933.13;;;7.20;65.38
38630;BME280;24384;51.988;4.644;2023-01-27T12:58:38;102937.28;;;7.07;63.51
38630;BME280;24384;51.988;4.644;2023-01-27T13:01:06;102940.53;;;6.91;63.25
38630;BME280;24384;51.988;4.644;2023-01-27T13:03:42;102941.50;;;6.96;63.38
38630;BME280;24384;51.988;4.644;2023-01-27T13:06:07;102935.19;;;6.85;63.73
38630;BME280;24384;51.988;4.644;2023-01-27T13:08:37;102940.63;;;6.95;62.98
38630;BME280;24384;51.988;4.644;2023-01-27T13:11:03;102942.25;;;6.90;65.82
38630;BME280;24384;51.988;4.644;2023-01-27T13:13:29;102938.72;;;6.87;63.59
38630;BME280;24384;51.988;4.644;2023-01-27T13:18:32;102937.78;;;6.81;64.57
38630;BME280;24384;51.988;4.644;2023-01-27T13:23:36;102944.00;;;6.90;68.13
38630;BME280;24384;51.988;4.644;2023-01-27T13:28:44;102950.41;;;7.09;69.42
38630;BME280;24384;51.988;4.644;2023-01-27T13:31:19;102944.22;;;7.02;69.17
38630;BME280;24384;51.988;4.644;2023-01-27T13:34:00;102941.84;;;7.21;77.87
38630;BME280;24384;51.988;4.644;2023-01-27T13:36:42;102950.66;;;7.24;72.82
38630;BME280;24384;51.988;4.644;2023-01-27T13:39:27;102943.50;;;7.12;69.59
38630;BME280;24384;51.988;4.644;2023-01-27T13:45:00;102948.94;;;7.25;68.46
38630;BME280;24384;51.988;4.644;2023-01-27T13:47:56;102944.38;;;7.13;64.23
38630;BME280;24384;51.988;4.644;2023-01-27T13:50:32;102940.63;;;6.95;63.60
38630;BME280;24384;51.988;4.644;2023-01-27T13:52:59;102950.75;;;6.74;62.85
38630;BME280;24384;51.988;4.644;2023-01-27T13:55:39;102954.22;;;6.71;63.26
38630;BME280;24384;51.988;4.644;2023-01-27T14:06:26;102951.22;;;6.50;65.61
38630;BME280;24384;51.988;4.644;2023-01-27T14:11:52;102955.50;;;6.44;66.27
38630;BME280;24384;51.988;4.644;2023-01-27T14:14:44;102951.84;;;6.36;66.28
38630;BME280;24384;51.988;4.644;2023-01-27T14:20:24;102943.22;;;6.42;68.24
38630;BME280;24384;51.988;4.644;2023-01-27T14:23:02;102960.38;;;6.24;64.49
38630;BME280;24384;51.988;4.644;2023-01-27T14:25:44;102948.91;;;6.19;67.08
38630;BME280;24384;51.988;4.644;2023-01-27T14:31:08;102960.84;;;6.03;65.46
38630;BME280;24384;51.988;4.644;2023-01-27T14:36:31;102969.56;;;6.04;66.55
38630;BME280;24384;51.988;4.644;2023-01-27T14:39:04;102973.56;;;5.86;67.25
38630;BME280;24384;51.988;4.644;2023-01-27T14:41:44;102979.69;;;5.88;66.85
38630;BME280;24384;51.988;4.644;2023-01-27T14:45:02;102976.19;;;5.86;67.79
38630;BME280;24384;51.988;4.644;2023-01-27T14:55:39;102986.94;;;5.99;66.61
38630;BME280;24384;51.988;4.644;2023-01-27T15:00:50;102984.94;;;5.88;66.27